sensor_id;sensor_type;location;lat;lon;timestamp;P1;durP1;ratioP1;P2;durP2;ratioP2
56343;SDS011;42245;42.058;24.700;2023-02-28T00:00:18;32.42;;;5.53;;
56343;SDS011;42245;42.058;24.700;2023-02-28T00:02:44;31.73;;;5.97;;
56343;SDS011;42245;42.058;24.700;2023-02-28T00:05:11;29.13;;;6.95;;
56343;SDS011;42245;42.058;24.700;2023-02-28T00:07:38;27.95;;;5.30;;
56343;SDS011;42245;42.058;24.700;2023-02-28T00:10:06;27.52;;;5.13;;
56343;SDS011;42245;42.058;24.700;2023-02-28T00:12:36;25.83;;;5.78;;
56343;SDS011;42245;42.058;24.700;2023-02-28T00:15:02;27.25;;;6.15;;
56343;SDS011;42245;42.058;24.700;2023-02-28T00:17:31;33.22;;;5.55;;
56343;SDS011;42245;42.058;24.700;2023-02-28T00:19:56;26.42;;;5.30;;
56343;SDS011;42245;42.058;24.700;2023-02-28T00:22:22;23.23;;;5.40;;
56343;SDS011;42245;42.058;24.700;2023-02-28T00:24:47;33.05;;;6.05;;
56343;SDS011;42245;42.058;24.700;2023-02-28T00:27:13;29.63;;;5.50;;
56343;SDS011;42245;42.058;24.700;2023-02-28T00:29:39;31.17;;;5.15;;
56343;SDS011;42245;42.058;24.700;2023-02-28T00:32:05;32.40;;;5.70;;
56343;SDS011;42245;42.058;24.700;2023-02-28T00:34:31;29.50;;;5.32;;
56343;SDS011;42245;42.058;24.700;2023-02-28T00:37:02;33.72;;;6.55;;
56343;SDS011;42245;42.058;24.700;2023-02-28T00:39:31;30.80;;;5.35;;
56343;SDS011;42245;42.058;24.700;2023-02-28T00:41:57;26.15;;;5.40;;
56343;SDS011;42245;42.058;24.700;2023-02-28T00:44:23;33.95;;;5.57;;
56343;SDS011;42245;42.058;24.700;2023-02-28T00:46:48;26.65;;;5.50;;
56343;SDS011;42245;42.058;24.700;2023-02-28T00:49:14;32.83;;;6.40;;
56343;SDS011;42245;42.058;24.700;2023-02-28T00:51:39;26.95;;;5.82;;
56343;SDS011;42245;42.058;24.700;2023-02-28T00:54:04;29.05;;;5.80;;
56343;SDS011;42245;42.058;24.700;2023-02-28T00:56:30;30.17;;;5.88;;
56343;SDS011;42245;42.058;24.700;2023-02-28T00:58:55;22.95;;;5.47;;
56343;SDS011;42245;42.058;24.700;2023-02-28T01:01:20;22.75;;;5.43;;
56343;SDS011;42245;42.058;24.700;2023-02-28T01:03:46;30.95;;;5.68;;
56343;SDS011;42245;42.058;24.700;2023-02-28T01:06:11;26.60;;;5.63;;
56343;SDS011;42245;42.058;24.700;2023-02-28T01:08:37;27.13;;;5.70;;
56343;SDS011;42245;42.058;24.700;2023-02-28T01:11:12;20.35;;;5.70;;
56343;SDS011;42245;42.058;24.700;2023-02-28T01:13:38;31.30;;;5.72;;
56343;SDS011;42245;42.058;24.700;2023-02-28T01:16:04;29.60;;;6.25;;
56343;SDS011;42245;42.058;24.700;2023-02-28T01:18:29;24.40;;;6.15;;
56343;SDS011;42245;42.058;24.700;2023-02-28T01:20:55;25.90;;;6.15;;
56343;SDS011;42245;42.058;24.700;2023-02-28T01:23:21;28.67;;;5.95;;
56343;SDS011;42245;42.058;24.700;2023-02-28T01:25:48;29.38;;;6.05;;
56343;SDS011;42245;42.058;24.700;2023-02-28T01:28:14;22.85;;;5.72;;
56343;SDS011;42245;42.058;24.700;2023-02-28T01:30:40;23.52;;;5.70;;
56343;SDS011;42245;42.058;24.700;2023-02-28T01:33:05;28.40;;;5.97;;
56343;SDS011;42245;42.058;24.700;2023-02-28T01:35:35;31.77;;;6.70;;
56343;SDS011;42245;42.058;24.700;2023-02-28T01:38:01;21.38;;;6.18;;
56343;SDS011;42245;42.058;24.700;2023-02-28T01:40:28;33.13;;;5.70;;
56343;SDS011;42245;42.058;24.700;2023-02-28T01:42:53;27.48;;;5.55;;
56343;SDS011;42245;42.058;24.700;2023-02-28T01:47:47;21.20;;;6.28;;
56343;SDS011;42245;42.058;24.700;2023-02-28T01:50:18;34.13;;;6.60;;
56343;SDS011;42245;42.058;24.700;2023-02-28T01:52:46;27.17;;;5.88;;
56343;SDS011;42245;42.058;24.700;2023-02-28T01:55:12;28.75;;;6.00;;
56343;SDS011;42245;42.058;24.700;2023-02-28T01:57:38;29.10;;;5.85;;
56343;SDS011;42245;42.058;24.700;2023-02-28T02:00:08;31.98;;;6.35;;
56343;SDS011;42245;42.058;24.700;2023-02-28T02:02:45;42.63;;;6.15;;
56343;SDS011;42245;42.058;24.700;2023-02-28T02:05:22;27.00;;;6.03;;
56343;SDS011;42245;42.058;24.700;2023-02-28T02:07:54;29.45;;;6.35;;
56343;SDS011;42245;42.058;24.700;2023-02-28T02:10:30;26.83;;;6.30;;
56343;SDS011;42245;42.058;24.700;2023-02-28T02:36:35;22.02;;;5.70;;
56343;SDS011;42245;42.058;24.700;2023-02-28T02:39:27;19.77;;;5.93;;
56343;SDS011;42245;42.058;24.700;2023-02-28T02:41:58;33.97;;;6.80;;
56343;SDS011;42245;42.058;24.700;2023-02-28T02:44:28;28.13;;;6.30;;
56343;SDS011;42245;42.058;24.700;2023-02-28T02:47:02;23.58;;;5.97;;
56343;SDS011;42245;42.058;24.700;2023-02-28T02:49:31;20.60;;;5.90;;
56343;SDS011;42245;42.058;24.700;2023-02-28T02:51:58;22.58;;;5.40;;
56343;SDS011;42245;42.058;24.700;2023-02-28T02:54:29;26.10;;;6.65;;
56343;SDS011;42245;42.058;24.700;2023-02-28T02:56:57;24.75;;;8.02;;
56343;SDS011;42245;42.058;24.700;2023-02-28T02:59:24;25.80;;;8.80;;
56343;SDS011;42245;42.058;24.700;2023-02-28T03:01:55;33.42;;;8.48;;
56343;SDS011;42245;42.058;24.700;2023-02-28T03:04:23;20.35;;;8.82;;
56343;SDS011;42245;42.058;24.700;2023-02-28T03:06:50;28.35;;;9.27;;
56343;SDS011;42245;42.058;24.700;2023-02-28T03:09:20;22.05;;;9.00;;
56343;SDS011;42245;42.058;24.700;2023-02-28T03:11:46;27.00;;;9.70;;
56343;SDS011;42245;42.058;24.700;2023-02-28T03:14:16;33.03;;;7.55;;
56343;SDS011;42245;42.058;24.700;2023-02-28T03:17:07;23.08;;;7.43;;
56343;SDS011;42245;42.058;24.700;2023-02-28T03:22:29;22.58;;;6.05;;
56343;SDS011;42245;42.058;24.700;2023-02-28T03:25:20;22.02;;;6.68;;
56343;SDS011;42245;42.058;24.700;2023-02-28T03:27:55;24.80;;;6.60;;
56343;SDS011;42245;42.058;24.700;2023-02-28T03:30:38;36.60;;;7.28;;
56343;SDS011;42245;42.058;24.700;2023-02-28T03:35:38;28.85;;;11.63;;
56343;SDS011;42245;42.058;24.700;2023-02-28T03:38:15;24.67;;;8.02;;
56343;SDS011;42245;42.058;24.700;2023-02-28T03:40:47;29.80;;;8.25;;
56343;SDS011;42245;42.058;24.700;2023-02-28T03:43:17;25.20;;;7.45;;
56343;SDS011;42245;42.058;24.700;2023-02-28T03:45:44;18.27;;;6.72;;
56343;SDS011;42245;42.058;24.700;2023-02-28T03:48:16;25.00;;;7.53;;
56343;SDS011;42245;42.058;24.700;2023-02-28T03:50:43;31.00;;;7.38;;
56343;SDS011;42245;42.058;24.700;2023-02-28T03:53:12;28.50;;;8.30;;
56343;SDS011;42245;42.058;24.700;2023-02-28T03:56:00;28.58;;;8.43;;
56343;SDS011;42245;42.058;24.700;2023-02-28T04:01:28;29.63;;;7.28;;
56343;SDS011;42245;42.058;24.700;2023-02-28T04:03:57;21.98;;;6.93;;
56343;SDS011;42245;42.058;24.700;2023-02-28T04:06:22;20.83;;;7.25;;
56343;SDS011;42245;42.058;24.700;2023-02-28T04:08:48;24.80;;;7.53;;
56343;SDS011;42245;42.058;24.700;2023-02-28T04:13:39;27.55;;;7.50;;
56343;SDS011;42245;42.058;24.700;2023-02-28T04:16:08;24.52;;;8.02;;
56343;SDS011;42245;42.058;24.700;2023-02-28T04:18:40;24.42;;;8.55;;
56343;SDS011;42245;42.058;24.700;2023-02-28T04:21:07;27.40;;;8.95;;
56343;SDS011;42245;42.058;24.700;2023-02-28T04:23:33;36.67;;;8.40;;
56343;SDS011;42245;42.058;24.700;2023-02-28T04:25:59;31.13;;;11.35;;
56343;SDS011;42245;42.058;24.700;2023-02-28T04:28:24;32.58;;;9.18;;
56343;SDS011;42245;42.058;24.700;2023-02-28T04:30:54;26.58;;;9.00;;
56343;SDS011;42245;42.058;24.700;2023-02-28T04:33:22;36.33;;;9.68;;
56343;SDS011;42245;42.058;24.700;2023-02-28T04:35:48;25.30;;;9.52;;
56343;SDS011;42245;42.058;24.700;2023-02-28T04:38:13;33.80;;;9.75;;
56343;SDS011;42245;42.058;24.700;2023-02-28T04:40:38;26.75;;;11.77;;
56343;SDS011;42245;42.058;24.700;2023-02-28T04:43:04;39.80;;;12.40;;
56343;SDS011;42245;42.058;24.700;2023-02-28T04:45:29;49.28;;;12.27;;
56343;SDS011;42245;42.058;24.700;2023-02-28T04:47:57;44.35;;;11.43;;
56343;SDS011;42245;42.058;24.700;2023-02-28T04:50:22;32.78;;;10.02;;
56343;SDS011;42245;42.058;24.700;2023-02-28T04:52:48;32.67;;;9.45;;
56343;SDS011;42245;42.058;24.700;2023-02-28T04:55:13;29.73;;;10.10;;
56343;SDS011;42245;42.058;24.700;2023-02-28T04:57:39;33.35;;;9.80;;
56343;SDS011;42245;42.058;24.700;2023-02-28T05:00:08;38.63;;;9.43;;
56343;SDS011;42245;42.058;24.700;2023-02-28T05:02:36;29.65;;;9.43;;
56343;SDS011;42245;42.058;24.700;2023-02-28T05:05:02;22.15;;;9.10;;
56343;SDS011;42245;42.058;24.700;2023-02-28T05:07:28;27.20;;;9.27;;
56343;SDS011;42245;42.058;24.700;2023-02-28T05:09:53;18.58;;;8.50;;
56343;SDS011;42245;42.058;24.700;2023-02-28T05:12:18;20.00;;;8.43;;
56343;SDS011;42245;42.058;24.700;2023-02-28T05:14:44;35.30;;;9.88;;
56343;SDS011;42245;42.058;24.700;2023-02-28T05:17:09;31.67;;;9.18;;
56343;SDS011;42245;42.058;24.700;2023-02-28T05:19:35;32.42;;;10.07;;
56343;SDS011;42245;42.058;24.700;2023-02-28T05:22:01;22.45;;;10.27;;
56343;SDS011;42245;42.058;24.700;2023-02-28T05:24:27;36.03;;;10.65;;
56343;SDS011;42245;42.058;24.700;2023-02-28T05:26:53;30.90;;;10.30;;
56343;SDS011;42245;42.058;24.700;2023-02-28T05:29:19;32.15;;;11.35;;
56343;SDS011;42245;42.058;24.700;2023-02-28T05:31:45;26.50;;;10.55;;
56343;SDS011;42245;42.058;24.700;2023-02-28T05:34:10;25.63;;;10.15;;
56343;SDS011;42245;42.058;24.700;2023-02-28T05:36:37;35.30;;;10.20;;
56343;SDS011;42245;42.058;24.700;2023-02-28T05:39:05;24.27;;;9.50;;
56343;SDS011;42245;42.058;24.700;2023-02-28T05:41:32;32.55;;;10.50;;
56343;SDS011;42245;42.058;24.700;2023-02-28T05:43:57;32.38;;;11.75;;
56343;SDS011;42245;42.058;24.700;2023-02-28T05:46:24;27.70;;;12.18;;
56343;SDS011;42245;42.058;24.700;2023-02-28T05:48:49;28.48;;;12.95;;
56343;SDS011;42245;42.058;24.700;2023-02-28T05:54:01;40.50;;;14.65;;
56343;SDS011;42245;42.058;24.700;2023-02-28T05:56:27;34.83;;;14.82;;
56343;SDS011;42245;42.058;24.700;2023-02-28T05:58:53;42.63;;;15.75;;
56343;SDS011;42245;42.058;24.700;2023-02-28T06:01:19;34.80;;;18.00;;
56343;SDS011;42245;42.058;24.700;2023-02-28T06:03:47;38.70;;;16.60;;
56343;SDS011;42245;42.058;24.700;2023-02-28T06:06:13;34.65;;;16.40;;
56343;SDS011;42245;42.058;24.700;2023-02-28T06:08:38;32.90;;;16.27;;
56343;SDS011;42245;42.058;24.700;2023-02-28T06:11:03;42.10;;;18.60;;
56343;SDS011;42245;42.058;24.700;2023-02-28T06:13:29;35.83;;;17.77;;
56343;SDS011;42245;42.058;24.700;2023-02-28T06:15:54;37.05;;;17.52;;
56343;SDS011;42245;42.058;24.700;2023-02-28T06:18:20;43.60;;;17.83;;
56343;SDS011;42245;42.058;24.700;2023-02-28T06:20:52;49.13;;;18.15;;
56343;SDS011;42245;42.058;24.700;2023-02-28T06:23:19;34.60;;;17.35;;
56343;SDS011;42245;42.058;24.700;2023-02-28T06:25:45;37.75;;;18.08;;
56343;SDS011;42245;42.058;24.700;2023-02-28T06:28:10;35.42;;;17.48;;
56343;SDS011;42245;42.058;24.700;2023-02-28T06:30:37;33.22;;;17.77;;
56343;SDS011;42245;42.058;24.700;2023-02-28T06:33:02;31.92;;;16.88;;
56343;SDS011;42245;42.058;24.700;2023-02-28T06:35:28;33.70;;;16.70;;
56343;SDS011;42245;42.058;24.700;2023-02-28T06:37:54;28.73;;;15.85;;
56343;SDS011;42245;42.058;24.700;2023-02-28T06:40:19;29.70;;;15.15;;
56343;SDS011;42245;42.058;24.700;2023-02-28T06:42:45;27.75;;;15.02;;
56343;SDS011;42245;42.058;24.700;2023-02-28T06:45:10;33.10;;;17.17;;
56343;SDS011;42245;42.058;24.700;2023-02-28T06:47:37;30.35;;;17.17;;
56343;SDS011;42245;42.058;24.700;2023-02-28T06:50:04;29.33;;;16.80;;
56343;SDS011;42245;42.058;24.700;2023-02-28T06:52:29;35.70;;;16.13;;
56343;SDS011;42245;42.058;24.700;2023-02-28T06:54:55;34.88;;;17.85;;
56343;SDS011;42245;42.058;24.700;2023-02-28T06:57:26;28.90;;;16.27;;
56343;SDS011;42245;42.058;24.700;2023-02-28T06:59:55;34.92;;;18.30;;
56343;SDS011;42245;42.058;24.700;2023-02-28T07:02:21;27.13;;;16.02;;
56343;SDS011;42245;42.058;24.700;2023-02-28T07:04:46;28.08;;;16.95;;
56343;SDS011;42245;42.058;24.700;2023-02-28T07:07:11;34.55;;;18.17;;
56343;SDS011;42245;42.058;24.700;2023-02-28T07:09:37;33.05;;;18.17;;
56343;SDS011;42245;42.058;24.700;2023-02-28T07:12:02;40.97;;;19.15;;
56343;SDS011;42245;42.058;24.700;2023-02-28T07:14:28;30.10;;;17.40;;
56343;SDS011;42245;42.058;24.700;2023-02-28T07:16:53;34.50;;;18.15;;
56343;SDS011;42245;42.058;24.700;2023-02-28T07:19:18;34.28;;;18.30;;
56343;SDS011;42245;42.058;24.700;2023-02-28T07:21:44;31.70;;;18.77;;
56343;SDS011;42245;42.058;24.700;2023-02-28T07:24:10;38.63;;;19.50;;
56343;SDS011;42245;42.058;24.700;2023-02-28T07:26:35;41.80;;;21.85;;
56343;SDS011;42245;42.058;24.700;2023-02-28T07:29:01;39.35;;;21.38;;
56343;SDS011;42245;42.058;24.700;2023-02-28T07:31:27;36.50;;;20.95;;
56343;SDS011;42245;42.058;24.700;2023-02-28T07:33:52;36.45;;;21.92;;
56343;SDS011;42245;42.058;24.700;2023-02-28T07:36:18;37.20;;;20.90;;
56343;SDS011;42245;42.058;24.700;2023-02-28T07:38:45;36.95;;;21.70;;
56343;SDS011;42245;42.058;24.700;2023-02-28T07:41:14;38.05;;;21.63;;
56343;SDS011;42245;42.058;24.700;2023-02-28T07:43:43;37.38;;;20.27;;
56343;SDS011;42245;42.058;24.700;2023-02-28T07:46:10;39.28;;;19.15;;
56343;SDS011;42245;42.058;24.700;2023-02-28T07:48:37;32.15;;;18.65;;
56343;SDS011;42245;42.058;24.700;2023-02-28T07:51:02;39.30;;;19.17;;
56343;SDS011;42245;42.058;24.700;2023-02-28T07:53:28;38.65;;;20.33;;
56343;SDS011;42245;42.058;24.700;2023-02-28T07:55:55;41.97;;;19.95;;
56343;SDS011;42245;42.058;24.700;2023-02-28T07:58:21;42.78;;;20.60;;
56343;SDS011;42245;42.058;24.700;2023-02-28T08:00:46;39.97;;;20.38;;
56343;SDS011;42245;42.058;24.700;2023-02-28T08:03:12;39.00;;;21.05;;
56343;SDS011;42245;42.058;24.700;2023-02-28T08:05:41;45.60;;;22.85;;
56343;SDS011;42245;42.058;24.700;2023-02-28T08:08:07;41.72;;;22.02;;
56343;SDS011;42245;42.058;24.700;2023-02-28T08:10:33;38.30;;;20.95;;
56343;SDS011;42245;42.058;24.700;2023-02-28T08:12:58;38.50;;;19.83;;
56343;SDS011;42245;42.058;24.700;2023-02-28T08:15:24;40.95;;;20.55;;
56343;SDS011;42245;42.058;24.700;2023-02-28T08:17:49;39.65;;;19.92;;
56343;SDS011;42245;42.058;24.700;2023-02-28T08:20:14;42.95;;;21.58;;
56343;SDS011;42245;42.058;24.700;2023-02-28T08:22:40;46.83;;;23.80;;
56343;SDS011;42245;42.058;24.700;2023-02-28T08:25:06;50.13;;;23.05;;
56343;SDS011;42245;42.058;24.700;2023-02-28T08:27:32;44.47;;;21.42;;
56343;SDS011;42245;42.058;24.700;2023-02-28T08:29:58;42.00;;;23.90;;
56343;SDS011;42245;42.058;24.700;2023-02-28T08:32:23;36.38;;;21.17;;
56343;SDS011;42245;42.058;24.700;2023-02-28T08:34:49;34.83;;;20.45;;
56343;SDS011;42245;42.058;24.700;2023-02-28T08:37:14;43.72;;;20.77;;
56343;SDS011;42245;42.058;24.700;2023-02-28T08:39:39;40.25;;;21.67;;
56343;SDS011;42245;42.058;24.700;2023-02-28T08:42:05;39.97;;;20.95;;
56343;SDS011;42245;42.058;24.700;2023-02-28T08:44:30;44.95;;;20.67;;
56343;SDS011;42245;42.058;24.700;2023-02-28T08:46:55;37.00;;;19.65;;
56343;SDS011;42245;42.058;24.700;2023-02-28T08:49:21;40.95;;;19.75;;
56343;SDS011;42245;42.058;24.700;2023-02-28T08:51:46;40.10;;;20.48;;
56343;SDS011;42245;42.058;24.700;2023-02-28T08:54:12;36.25;;;21.02;;
56343;SDS011;42245;42.058;24.700;2023-02-28T08:56:37;37.17;;;21.38;;
56343;SDS011;42245;42.058;24.700;2023-02-28T08:59:04;40.33;;;21.55;;
56343;SDS011;42245;42.058;24.700;2023-02-28T09:01:29;40.03;;;21.83;;
56343;SDS011;42245;42.058;24.700;2023-02-28T09:03:55;364.33;;;144.50;;
56343;SDS011;42245;42.058;24.700;2023-02-28T09:06:22;47.65;;;22.45;;
56343;SDS011;42245;42.058;24.700;2023-02-28T09:08:48;45.33;;;23.50;;
56343;SDS011;42245;42.058;24.700;2023-02-28T09:11:14;48.65;;;24.38;;
56343;SDS011;42245;42.058;24.700;2023-02-28T09:13:40;49.88;;;24.33;;
56343;SDS011;42245;42.058;24.700;2023-02-28T09:16:06;42.70;;;24.70;;
56343;SDS011;42245;42.058;24.700;2023-02-28T09:18:34;42.03;;;23.95;;
56343;SDS011;42245;42.058;24.700;2023-02-28T09:21:02;45.88;;;23.58;;
56343;SDS011;42245;42.058;24.700;2023-02-28T09:23:29;38.35;;;21.80;;
56343;SDS011;42245;42.058;24.700;2023-02-28T09:25:55;50.03;;;24.95;;
56343;SDS011;42245;42.058;24.700;2023-02-28T09:28:21;42.72;;;24.85;;
56343;SDS011;42245;42.058;24.700;2023-02-28T09:30:47;43.83;;;24.50;;
56343;SDS011;42245;42.058;24.700;2023-02-28T09:33:14;42.05;;;23.25;;
56343;SDS011;42245;42.058;24.700;2023-02-28T09:35:40;48.75;;;23.15;;
56343;SDS011;42245;42.058;24.700;2023-02-28T09:38:06;44.88;;;23.40;;
56343;SDS011;42245;42.058;24.700;2023-02-28T09:40:34;44.80;;;23.50;;
56343;SDS011;42245;42.058;24.700;2023-02-28T09:43:21;48.40;;;24.73;;
56343;SDS011;42245;42.058;24.700;2023-02-28T09:46:25;43.60;;;23.60;;
56343;SDS011;42245;42.058;24.700;2023-02-28T09:48:47;40.03;;;23.60;;
56343;SDS011;42245;42.058;24.700;2023-02-28T09:53:52;47.97;;;25.33;;
56343;SDS011;42245;42.058;24.700;2023-02-28T09:56:22;42.45;;;23.70;;
56343;SDS011;42245;42.058;24.700;2023-02-28T09:58:55;45.47;;;25.48;;
56343;SDS011;42245;42.058;24.700;2023-02-28T10:07:00;46.40;;;23.85;;
56343;SDS011;42245;42.058;24.700;2023-02-28T10:09:32;45.70;;;26.08;;
56343;SDS011;42245;42.058;24.700;2023-02-28T10:12:04;47.08;;;27.10;;
56343;SDS011;42245;42.058;24.700;2023-02-28T10:14:32;46.45;;;25.98;;
56343;SDS011;42245;42.058;24.700;2023-02-28T10:17:02;49.75;;;29.25;;
56343;SDS011;42245;42.058;24.700;2023-02-28T10:24:52;52.65;;;30.77;;
56343;SDS011;42245;42.058;24.700;2023-02-28T10:27:20;57.22;;;30.23;;
56343;SDS011;42245;42.058;24.700;2023-02-28T10:29:48;54.95;;;30.48;;
56343;SDS011;42245;42.058;24.700;2023-02-28T10:32:16;58.88;;;31.08;;
56343;SDS011;42245;42.058;24.700;2023-02-28T10:34:43;55.00;;;31.38;;
56343;SDS011;42245;42.058;24.700;2023-02-28T10:37:09;54.47;;;29.52;;
56343;SDS011;42245;42.058;24.700;2023-02-28T10:42:04;52.50;;;29.38;;
56343;SDS011;42245;42.058;24.700;2023-02-28T10:44:30;57.42;;;31.02;;
56343;SDS011;42245;42.058;24.700;2023-02-28T10:46:56;53.90;;;30.27;;
56343;SDS011;42245;42.058;24.700;2023-02-28T10:49:22;55.92;;;31.25;;
56343;SDS011;42245;42.058;24.700;2023-02-28T10:51:51;62.47;;;31.42;;
56343;SDS011;42245;42.058;24.700;2023-02-28T10:54:24;54.20;;;28.75;;
56343;SDS011;42245;42.058;24.700;2023-02-28T10:59:34;63.53;;;32.15;;
56343;SDS011;42245;42.058;24.700;2023-02-28T11:01:59;59.17;;;32.60;;
56343;SDS011;42245;42.058;24.700;2023-02-28T11:07:05;56.25;;;30.95;;
56343;SDS011;42245;42.058;24.700;2023-02-28T11:09:39;61.30;;;33.28;;
56343;SDS011;42245;42.058;24.700;2023-02-28T11:12:06;62.30;;;31.55;;
56343;SDS011;42245;42.058;24.700;2023-02-28T11:14:35;65.53;;;33.30;;
56343;SDS011;42245;42.058;24.700;2023-02-28T11:17:13;56.72;;;31.42;;
56343;SDS011;42245;42.058;24.700;2023-02-28T11:19:46;56.33;;;32.05;;
56343;SDS011;42245;42.058;24.700;2023-02-28T11:22:17;65.40;;;33.00;;
56343;SDS011;42245;42.058;24.700;2023-02-28T11:24:44;60.95;;;33.00;;
56343;SDS011;42245;42.058;24.700;2023-02-28T11:27:25;69.15;;;35.45;;
56343;SDS011;42245;42.058;24.700;2023-02-28T11:29:57;68.28;;;35.58;;
56343;SDS011;42245;42.058;24.700;2023-02-28T11:32:24;63.55;;;32.80;;
56343;SDS011;42245;42.058;24.700;2023-02-28T11:35:00;64.38;;;35.60;;
56343;SDS011;42245;42.058;24.700;2023-02-28T11:37:39;67.78;;;35.90;;
56343;SDS011;42245;42.058;24.700;2023-02-28T11:40:28;68.22;;;35.42;;
56343;SDS011;42245;42.058;24.700;2023-02-28T11:56:12;73.03;;;35.78;;
56343;SDS011;42245;42.058;24.700;2023-02-28T12:01:28;66.38;;;35.63;;
56343;SDS011;42245;42.058;24.700;2023-02-28T12:07:09;72.60;;;36.38;;
56343;SDS011;42245;42.058;24.700;2023-02-28T12:09:53;66.93;;;35.63;;
56343;SDS011;42245;42.058;24.700;2023-02-28T12:18:25;72.88;;;35.80;;
56343;SDS011;42245;42.058;24.700;2023-02-28T12:21:04;76.65;;;38.85;;
56343;SDS011;42245;42.058;24.700;2023-02-28T12:23:47;68.72;;;36.42;;
56343;SDS011;42245;42.058;24.700;2023-02-28T12:29:00;71.90;;;35.40;;
56343;SDS011;42245;42.058;24.700;2023-02-28T12:31:29;72.78;;;37.33;;
56343;SDS011;42245;42.058;24.700;2023-02-28T12:33:59;70.35;;;37.63;;
56343;SDS011;42245;42.058;24.700;2023-02-28T12:36:26;67.25;;;35.95;;
56343;SDS011;42245;42.058;24.700;2023-02-28T12:41:36;73.43;;;37.83;;
56343;SDS011;42245;42.058;24.700;2023-02-28T12:44:27;73.05;;;37.95;;
56343;SDS011;42245;42.058;24.700;2023-02-28T12:47:03;59.90;;;34.20;;
56343;SDS011;42245;42.058;24.700;2023-02-28T12:51:56;66.72;;;34.72;;
56343;SDS011;42245;42.058;24.700;2023-02-28T13:00:02;62.85;;;32.83;;
56343;SDS011;42245;42.058;24.700;2023-02-28T13:02:41;59.40;;;33.13;;
56343;SDS011;42245;42.058;24.700;2023-02-28T13:07:49;61.20;;;31.58;;
56343;SDS011;42245;42.058;24.700;2023-02-28T13:10:19;60.70;;;34.30;;
56343;SDS011;42245;42.058;24.700;2023-02-28T13:12:48;54.90;;;31.48;;
56343;SDS011;42245;42.058;24.700;2023-02-28T13:15:25;53.97;;;28.20;;
56343;SDS011;42245;42.058;24.700;2023-02-28T13:17:54;63.42;;;35.97;;
56343;SDS011;42245;42.058;24.700;2023-02-28T13:20:26;59.38;;;33.20;;
56343;SDS011;42245;42.058;24.700;2023-02-28T13:22:59;60.03;;;32.50;;
56343;SDS011;42245;42.058;24.700;2023-02-28T13:28:09;58.85;;;30.27;;
56343;SDS011;42245;42.058;24.700;2023-02-28T13:33:21;54.30;;;28.13;;
56343;SDS011;42245;42.058;24.700;2023-02-28T13:36:51;57.85;;;31.20;;
56343;SDS011;42245;42.058;24.700;2023-02-28T13:38:51;52.35;;;28.63;;
56343;SDS011;42245;42.058;24.700;2023-02-28T13:43:59;59.40;;;31.95;;
56343;SDS011;42245;42.058;24.700;2023-02-28T13:46:27;64.38;;;33.38;;
56343;SDS011;42245;42.058;24.700;2023-02-28T13:48:53;55.38;;;29.23;;
56343;SDS011;42245;42.058;24.700;2023-02-28T13:51:35;52.35;;;30.00;;
56343;SDS011;42245;42.058;24.700;2023-02-28T13:57:33;47.40;;;27.02;;
56343;SDS011;42245;42.058;24.700;2023-02-28T14:02:48;43.67;;;25.95;;
56343;SDS011;42245;42.058;24.700;2023-02-28T14:05:22;37.10;;;22.02;;
56343;SDS011;42245;42.058;24.700;2023-02-28T14:07:54;49.75;;;29.33;;
56343;SDS011;42245;42.058;24.700;2023-02-28T14:13:03;48.10;;;28.05;;
56343;SDS011;42245;42.058;24.700;2023-02-28T14:15:54;35.60;;;20.35;;
56343;SDS011;42245;42.058;24.700;2023-02-28T14:18:26;35.83;;;22.92;;
56343;SDS011;42245;42.058;24.700;2023-02-28T14:21:04;32.92;;;20.30;;
56343;SDS011;42245;42.058;24.700;2023-02-28T14:34:43;35.95;;;23.02;;
56343;SDS011;42245;42.058;24.700;2023-02-28T14:37:16;38.15;;;22.63;;
56343;SDS011;42245;42.058;24.700;2023-02-28T14:39:45;35.45;;;22.02;;
56343;SDS011;42245;42.058;24.700;2023-02-28T14:45:03;37.45;;;20.73;;
56343;SDS011;42245;42.058;24.700;2023-02-28T14:47:32;34.90;;;20.75;;
56343;SDS011;42245;42.058;24.700;2023-02-28T14:49:59;40.40;;;24.10;;
56343;SDS011;42245;42.058;24.700;2023-02-28T14:52:28;39.17;;;23.08;;
56343;SDS011;42245;42.058;24.700;2023-02-28T14:59:56;43.65;;;25.40;;
56343;SDS011;42245;42.058;24.700;2023-02-28T15:02:33;39.50;;;24.83;;
56343;SDS011;42245;42.058;24.700;2023-02-28T15:05:01;47.75;;;24.50;;
56343;SDS011;42245;42.058;24.700;2023-02-28T15:07:43;25.70;;;15.13;;
56343;SDS011;42245;42.058;24.700;2023-02-28T15:12:57;31.17;;;19.25;;
56343;SDS011;42245;42.058;24.700;2023-02-28T15:15:25;38.67;;;23.85;;
56343;SDS011;42245;42.058;24.700;2023-02-28T15:17:56;40.95;;;25.10;;
56343;SDS011;42245;42.058;24.700;2023-02-28T15:20:22;41.60;;;24.42;;
56343;SDS011;42245;42.058;24.700;2023-02-28T15:22:49;30.90;;;16.48;;
56343;SDS011;42245;42.058;24.700;2023-02-28T15:25:17;50.55;;;24.55;;
56343;SDS011;42245;42.058;24.700;2023-02-28T15:27:46;68.32;;;32.45;;
56343;SDS011;42245;42.058;24.700;2023-02-28T15:30:15;57.95;;;29.80;;
56343;SDS011;42245;42.058;24.700;2023-02-28T15:32:43;64.35;;;32.35;;
56343;SDS011;42245;42.058;24.700;2023-02-28T15:37:47;47.30;;;25.98;;
56343;SDS011;42245;42.058;24.700;2023-02-28T15:40:24;37.28;;;22.83;;
56343;SDS011;42245;42.058;24.700;2023-02-28T15:45:47;36.42;;;23.88;;
56343;SDS011;42245;42.058;24.700;2023-02-28T15:48:16;37.83;;;23.42;;
56343;SDS011;42245;42.058;24.700;2023-02-28T15:50:44;34.67;;;21.02;;
56343;SDS011;42245;42.058;24.700;2023-02-28T15:53:13;28.05;;;18.00;;
56343;SDS011;42245;42.058;24.700;2023-02-28T15:55:41;30.30;;;19.00;;
56343;SDS011;42245;42.058;24.700;2023-02-28T15:58:08;44.78;;;25.98;;
56343;SDS011;42245;42.058;24.700;2023-02-28T16:00:38;36.47;;;23.48;;
56343;SDS011;42245;42.058;24.700;2023-02-28T16:03:23;29.92;;;18.42;;
56343;SDS011;42245;42.058;24.700;2023-02-28T16:06:07;32.03;;;19.13;;
56343;SDS011;42245;42.058;24.700;2023-02-28T16:08:53;28.27;;;16.58;;
56343;SDS011;42245;42.058;24.700;2023-02-28T16:11:20;30.65;;;17.58;;
56343;SDS011;42245;42.058;24.700;2023-02-28T16:13:46;39.95;;;23.17;;
56343;SDS011;42245;42.058;24.700;2023-02-28T16:16:16;38.42;;;22.70;;
56343;SDS011;42245;42.058;24.700;2023-02-28T16:18:42;52.47;;;35.40;;
56343;SDS011;42245;42.058;24.700;2023-02-28T16:21:08;42.23;;;30.43;;
56343;SDS011;42245;42.058;24.700;2023-02-28T16:23:35;35.30;;;21.48;;
56343;SDS011;42245;42.058;24.700;2023-02-28T16:26:05;44.65;;;27.05;;
56343;SDS011;42245;42.058;24.700;2023-02-28T16:28:34;32.53;;;19.48;;
56343;SDS011;42245;42.058;24.700;2023-02-28T16:31:01;31.77;;;19.83;;
56343;SDS011;42245;42.058;24.700;2023-02-28T16:33:28;30.08;;;18.73;;
56343;SDS011;42245;42.058;24.700;2023-02-28T16:35:54;28.15;;;17.08;;
56343;SDS011;42245;42.058;24.700;2023-02-28T16:38:20;30.23;;;17.15;;
56343;SDS011;42245;42.058;24.700;2023-02-28T16:40:46;30.90;;;19.00;;
56343;SDS011;42245;42.058;24.700;2023-02-28T16:43:15;31.35;;;18.92;;
56343;SDS011;42245;42.058;24.700;2023-02-28T16:45:42;31.50;;;18.63;;
56343;SDS011;42245;42.058;24.700;2023-02-28T16:48:11;30.83;;;17.83;;